Tiempo atmosférico en la estación meteorológica de Valdezcaray, estación de esquí, La Rioja (1630 m.)



Fecha
DESCASC
Temp. máxima en grados centígrados (hora)
DESCASC
Temp. mínima en grados centígrados (hora)
DESCASC
Temp. media en grados centígrados
DESCASC
Racha de viento máxima en m/sg (hora)
DESCASC
Velocidad máxima media en intervalos de 10 minutos(hora)
DESCASC
Precipitaciones diarias en mm
DESCASC
Precipitaciones de 00:00 a 06:00 en mm
DESCASC
Precipitaciones de 06:00 a 12:00 en mm
DESCASC
Precipitaciones de 12:00 a 18:00 en mm
DESCASC
Precipitaciones de 18:00 a 24:00 en mm
DESCASC
10-11-2019 -1.7 (00:00) -3.3 (-00:0) -2.5 10.56 (04:00) 5 (00:10) 7.4 1 1.8 2 2.6
09-11-2019 3.1 (20:40) -1.9 (-00:0) 0.6 14.17 (21:30) 7.78 (10:50) 11.4 0 1.6 0.2 9.6
08-11-2019 -0.4 (12:20) -3.3 (-00:0) -1.8 19.17 (20:20) 8.33 (16:40) 1.4 0 0 1.4 0
07-11-2019 4.8 (03:50) -2.9 (-00:0) 1 17.22 (17:50) 8.33 (03:20) 1.4 1.2 0.2 0 0
06-11-2019 4.6 (23:59) 0.3 (00:00) 2.4 13.33 (02:00) 6.39 (02:00) 0.8 0.8 0 0 0
05-11-2019 2.8 (15:30) -0.2 (00:00) 1.3 23.89 (00:40) 10.83 (00:50) 1.6 0 0 0.2 1.4
04-11-2019 7.2 (14:30) 1.9 (00:00) 4.5 30.83 (03:00) 17.22 (05:30) 7 0.6 1.2 5.2 0
03-11-2019 6.4 (23:30) 2.3 (00:00) 4.4 36.67 (03:50) 18.61 (04:50) 2.2 2.2 0 0 0
02-11-2019 9.5 (00:00) 5.4 (00:00) 7.5 33.61 (23:59) 16.11 (19:00) 2.4 0.8 1.4 0.2 0
01-11-2019 11.6 (13:10) 9.5 (00:00) 10.6 22.78 (16:20) 11.94 (16:20) 1.2 0 0 0.8 0.4
31-10-2019 11.1 (15:20) 7.5 (10:00) 9.3 10 (00:10) 5 (00:20) 0.2 0.2 0 0 0
30-10-2019 11.1 (15:50) 7.8 (00:00) 9.5 12.78 (11:40) 5.56 (23:20) 0 0 0 0 0
29-10-2019 12.8 (15:20) 7.6 (00:00) 10.2 8.61 (07:50) 5.28 (00:10) 0 0 0 0 0
28-10-2019 16.8 (13:50) 11 (00:00) 13.9 8.33 (00:40) 5 (23:59) 0 0 0 0 0
27-10-2019 15.7 (13:30) 8.8 (00:00) 12.3 8.89 (17:00) 5.28 (17:00) 0 0 0 0 0
26-10-2019 17 (16:20) 10.2 (00:00) 13.6 9.44 (02:00) 5 (02:40) 0 0 0 0 0
25-10-2019 14.6 (15:30) 6.2 (00:00) 10.4 10.28 (11:50) 4.72 (06:20) 0 0 0 0 0
24-10-2019 8.1 (14:00) 0.6 (00:00) 4.4 8.61 (08:30) 4.17 (07:20) 8.6 8.2 0.4 0 0
23-10-2019 7.2 (14:50) 2.7 (00:00) 4.9 10.56 (11:20) 8.06 (14:00) 31.6 7.6 12.2 3.4 8.4
22-10-2019 2.7 (23:59) 0.5 (00:00) 1.6 11.67 (15:40) 6.94 (04:30) 18.2 0 0 7.6 10.6
21-10-2019 4.8 (12:50) -0.6 (-00:0) 2.1 8.89 (23:20) 6.67 (21:50) 6 0 0 1.2 4.8
20-10-2019 8.3 (01:30) -0.4 (00:00) 4 18.61 (08:20) 8.89 (09:40) 21.4 5.2 0.2 9 7
19-10-2019 10 (16:20) 6 (00:00) 8 24.17 (23:30) 13.33 (23:40) 7 0 0 0 7
18-10-2019 11.1 (00:00) 8.4 (00:00) 9.8 21.39 (20:10) 10.83 (18:50) 5.4 5.4 0 0 0
17-10-2019 11.3 (03:40) 7.9 (00:00) 9.6 18.61 (04:30) 10.56 (04:30) 0.2 0 0.2 0 0
16-10-2019 11.9 (17:10) 4.6 (00:00) 8.2 18.06 (09:30) 8.89 (21:10) 0 0 0 0 0
15-10-2019 7 (16:40) 0.5 (00:00) 3.8 17.5 (02:50) 8.89 (02:50) 0 0 0 0 0

Gráficas

Temp. máximas Temp. mínimas Temp. medias Precipitaciones Rachas de viento máximas Velocidades máximas media en intervalos de 10 minutos

Datos horarios

Fecha y hora oficial Temperatura (ºC) Velocidad del viento (km/h) Dirección del viento Racha (km/h) Dirección de racha Precipitación (mm) Presión (hPa) Tendencia (hPa) Humedad (%)
2019-11-13 23:00:00 3 18 Sur 77 Sur 0 -- -- 86
2019-11-13 22:00:00 4 17 Sudeste 66 Sudeste 0 -- -- 83
2019-11-13 21:00:00 4.3 25 Nordeste 74 Norte 0 -- -- 86
2019-11-13 20:00:00 3.9 18 Norte 55 Noroeste 0 -- -- 87
2019-11-13 19:00:00 3.5 19 Nordeste 47 Sur 0 -- -- 87
2019-11-13 18:00:00 3.1 15 Norte 40 Noroeste 0 -- -- 85
2019-11-13 17:00:00 3.1 10 Noroeste 26 Noroeste 0 -- -- 83
2019-11-13 16:00:00 2.6 11 Noroeste 33 Noroeste 0 -- -- 98
2019-11-13 15:00:00 2.1 10 Noroeste 21 Noroeste 0 -- -- 100
2019-11-13 14:00:00 1.6 9 Noroeste 22 Noroeste 0 -- -- 100
2019-11-13 13:00:00 1 13 Noroeste 24 Noroeste 0 -- -- 100
2019-11-13 12:00:00 0.9 10 Noroeste 26 Oeste 0 -- -- 100
2019-11-13 11:00:00 0.7 11 Noroeste 27 Noroeste 0 -- -- 100
2019-11-13 10:00:00 0.5 7 Noroeste 30 Noroeste 0.6 -- -- 100
2019-11-13 09:00:00 0.4 8 Norte 19 Noroeste 1.8 -- -- 100
2019-11-13 08:00:00 0 0 Calma 7 Noroeste 1.6 -- -- 100
2019-11-13 07:00:00 0.2 5 Noroeste 29 Noroeste 2.2 -- -- 100
2019-11-13 06:00:00 1.3 10 Noroeste 33 Noroeste 3.6 -- -- 100
2019-11-13 05:00:00 3.6 15 Noroeste 39 Noroeste 1.6 -- -- 100
2019-11-13 04:00:00 3.7 11 Noroeste 39 Noroeste 1.2 -- -- 97
2019-11-13 03:00:00 3.9 9 Noroeste 28 Noroeste 2 -- -- 97
2019-11-13 02:00:00 3.6 12 Oeste 33 Noroeste 1 -- -- 95
2019-11-13 01:00:00 3.2 18 Norte 44 Norte 2.2 -- -- 95
2019-11-13 00:00:00 3.2 14 Sudoeste 37 Sur 0 -- -- 94
2019-11-12 23:00:00 2.8 14 Oeste 38 Sur 0 -- -- 93
2019-11-12 22:00:00 2.4 13 Oeste 37 Sur 0.2 -- -- 93
2019-11-12 21:00:00 2.1 17 Norte 47 Noroeste 0.2 -- -- 91
2019-11-12 20:00:00 1.1 8 Noroeste 42 Sur 0.8 -- -- 93
2019-11-12 19:00:00 1.3 9 Noroeste 30 Sudoeste 1 -- -- 96
2019-11-12 18:00:00 1.2 6 Oeste 27 Noroeste 0.6 -- -- 94
2019-11-12 17:00:00 1.7 13 Norte 33 Norte 0 -- -- 91
2019-11-12 16:00:00 1.7 12 Oeste 25 Oeste 0 -- -- 100
2019-11-12 15:00:00 1.7 9 Noroeste 24 Noroeste 0 -- -- 99
2019-11-12 14:00:00 1.4 9 Noroeste 19 Oeste 0 -- -- 97
2019-11-12 13:00:00 0 9 Noroeste 18 Oeste 0 -- -- 100
2019-11-12 12:00:00 -0.2 7 Noroeste 22 Norte 0 -- -- 100
2019-11-12 11:00:00 -0.4 7 Noroeste 26 Norte 0 -- -- 100
2019-11-12 10:00:00 -0.6 14 Noroeste 27 Noroeste 0 -- -- 100
2019-11-12 09:00:00 -1 9 Noroeste 19 Norte 0 -- -- 100
2019-11-12 08:00:00 -1.3 10 Noroeste 19 Noroeste 0 -- -- 100
2019-11-12 07:00:00 -1.3 4 Noroeste 19 Noroeste 0 -- -- 100
2019-11-12 06:00:00 -1.3 5 Noroeste 20 Noroeste 0 -- -- 100
2019-11-12 05:00:00 -1.2 10 Noroeste 19 Norte 0 -- -- 100
2019-11-12 04:00:00 -0.9 11 Noroeste 25 Noroeste 0 -- -- 100
2019-11-12 03:00:00 -1.1 9 Noroeste 18 Oeste 0 -- -- 100
2019-11-12 02:00:00 -1.4 7 Noroeste 13 Noroeste 0 -- -- 100
2019-11-12 01:00:00 -1.4 5 Noroeste 17 Noroeste 0 -- -- 100
2019-11-12 00:00:00 -1.6 4 Noroeste 19 Noroeste 0 -- -- 100
2019-11-11 23:00:00 -1.2 10 Norte 28 Noroeste 0.2 -- -- 100
2019-11-11 22:00:00 -0.9 12 Noroeste 28 Noroeste 0.2 -- -- 100
2019-11-11 21:00:00 -0.7 13 Noroeste 31 Norte 0 -- -- 100
2019-11-11 20:00:00 -0.6 16 Noroeste 34 Noroeste 0 -- -- 100
2019-11-11 19:00:00 -0.4 10 Noroeste 37 Noroeste 0 -- -- 100
2019-11-11 18:00:00 -0.2 17 Noroeste 41 Noroeste 0 -- -- 100
2019-11-11 17:00:00 -0.1 15 Noroeste 44 Noroeste 0 -- -- 100
2019-11-11 16:00:00 0.3 16 Noroeste 55 Noroeste 0 -- -- 100
2019-11-11 15:00:00 0.7 28 Noroeste 56 Noroeste 0 -- -- 100
2019-11-11 14:00:00 1.3 22 Noroeste 52 Noroeste 0 -- -- 100
2019-11-11 13:00:00 1.8 26 Noroeste 57 Norte 0 -- -- 100
2019-11-11 12:00:00 2.8 26 Noroeste 54 Noroeste 0.2 -- -- 100
2019-11-11 11:00:00 3.1 13 Noroeste 31 Noroeste 0 -- -- 100
2019-11-11 10:00:00 2.4 9 Noroeste 22 Noroeste 0 -- -- 100
2019-11-11 09:00:00 0.1 4 Noroeste 8 Noroeste 0 -- -- 100
2019-11-11 08:00:00 -0.1 2 Norte 9 Oeste 0.6 -- -- 100
2019-11-11 07:00:00 -0.4 0 Calma 6 Noroeste 1 -- -- 100
2019-11-11 06:00:00 -0.7 3 Noroeste 12 Noroeste 0.4 -- -- 100
2019-11-11 05:00:00 -1.4 4 Noroeste 10 Noroeste 0 -- -- 100
2019-11-11 04:00:00 -1.6 7 Noroeste 12 Noroeste 0.2 -- -- 100
2019-11-11 03:00:00 -1.5 4 Noroeste 11 Noroeste 0.2 -- -- 100
2019-11-11 02:00:00 -1.4 6 Noroeste 17 Noroeste 0 -- -- 100
2019-11-11 01:00:00 -1.6 5 Noroeste 11 Noroeste 0 -- -- 100
2019-11-11 00:00:00 -1.8 6 Noroeste 10 Norte 0.2 -- -- 100
2019-11-10 23:00:00 -2.1 5 Noroeste 13 Noroeste 0 -- -- 100
2019-11-10 22:00:00 -2.1 7 Noroeste 15 Noroeste 0.4 -- -- 100
2019-11-10 21:00:00 -2.2 6 Noroeste 10 Noroeste 0.6 -- -- 100
2019-11-10 20:00:00 -2.4 5 Noroeste 16 Noroeste 0.2 -- -- 100
2019-11-10 19:00:00 -2.4 8 Noroeste 15 Noroeste 1.2 -- -- 100
2019-11-10 18:00:00 -2.3 8 Noroeste 23 Noroeste 0.4 -- -- 100
2019-11-10 17:00:00 -2.2 13 Noroeste 26 Norte 0 -- -- 100
2019-11-10 16:00:00 -2.4 12 Noroeste 32 Oeste 0.2 -- -- 100
2019-11-10 15:00:00 -2.3 12 Noroeste 22 Norte 0 -- -- 100
2019-11-10 14:00:00 -2.2 12 Noroeste 26 Noroeste 0.4 -- -- 100
2019-11-10 13:00:00 -2.1 8 Noroeste 25 Noroeste 1 -- -- 100
2019-11-10 12:00:00 -2.2 11 Noroeste 33 Noroeste 0.4 -- -- 100
2019-11-10 11:00:00 -2.5 13 Noroeste 35 Norte 0.2 -- -- 100
2019-11-10 10:00:00 -2.5 14 Noroeste 35 Norte 0.2 -- -- 100
2019-11-10 09:00:00 -2.7 6 Noroeste 29 Noroeste 1 -- -- 100
2019-11-10 08:00:00 -2.8 14 Noroeste 35 Noroeste 0 -- -- 100
2019-11-10 07:00:00 -3 15 Noroeste 29 Norte 0 -- -- 100
2019-11-10 06:00:00 -3.3 11 Noroeste 28 Oeste 0 -- -- 99
2019-11-10 05:00:00 -2.8 13 Noroeste 30 Noroeste 0.2 -- -- 100
2019-11-10 04:00:00 -2.7 16 Noroeste 38 Norte 0.4 -- -- 100
2019-11-10 03:00:00 -2.5 8 Noroeste 27 Noroeste 0 -- -- 100
2019-11-10 02:00:00 -2.1 12 Noroeste 35 Noroeste 0.4 -- -- 100
2019-11-10 01:00:00 -1.9 15 Noroeste 35 Noroeste 0 -- -- 100
2019-11-10 00:00:00 -1.7 18 Noroeste 33 Noroeste 2.6 -- -- 100
2019-11-09 23:00:00 -1.7 13 Noroeste 39 Noroeste 5.4 -- -- 100
2019-11-09 22:00:00 -0.5 17 Noroeste 51 Norte 1.6 -- -- 100
2019-11-09 21:00:00 2.9 28 Norte 50 Noroeste 0 -- -- 89
2019-11-09 20:00:00 2.8 19 Noroeste 45 Norte 0 -- -- 87
2019-11-09 19:00:00 2.2 19 Norte 34 Noroeste 0 -- -- 95
2019-11-09 18:00:00 2.1 8 Noroeste 23 Sur 0 -- -- 93
2019-11-09 17:00:00 2.3 14 Sudoeste 35 Oeste 0 -- -- 89
2019-11-09 16:00:00 2.2 18 Sudoeste 45 Sudoeste 0 -- -- 87
2019-11-09 15:00:00 2.2 13 Oeste 31 Oeste 0 -- -- 89
2019-11-09 14:00:00 2.7 16 Oeste 40 Noroeste 0 -- -- 89
2019-11-09 13:00:00 1.9 16 Sudoeste 37 Sudoeste 0.2 -- -- 92
2019-11-09 12:00:00 1 12 Sudoeste 37 Sudoeste 0.8 -- -- 92
2019-11-09 11:00:00 0.1 28 Sudoeste 46 Sudoeste 0.8 -- -- 93
2019-11-09 10:00:00 1.8 17 Sudoeste 35 Sudoeste 0 -- -- 76
2019-11-09 09:00:00 1.7 10 Sudoeste 24 Oeste 0 -- -- 77
2019-11-09 08:00:00 0.5 9 Oeste 25 Oeste 0 -- -- 83
2019-11-09 07:00:00 0.1 11 Oeste 22 Noroeste 0 -- -- 91
2019-11-09 06:00:00 -0.1 15 Noroeste 27 Noroeste 0 -- -- 94
2019-11-09 05:00:00 -1.2 8 Noroeste 26 Noroeste 0 -- -- 100
2019-11-09 04:00:00 -0.4 15 Noroeste 34 Oeste 0 -- -- 97
2019-11-09 03:00:00 -0.9 9 Noroeste 33 Noroeste 0 -- -- 100
2019-11-09 02:00:00 -1 11 Noroeste 30 Oeste 0 -- -- 100
2019-11-09 01:00:00 -1.3 12 Noroeste 36 Noroeste 0 -- -- 100
2019-11-09 00:00:00 -1.5 12 Noroeste 46 Noroeste 0 -- -- 100
2019-11-08 23:00:00 -1.4 18 Noroeste 46 Noroeste 0 -- -- 99
2019-11-08 22:00:00 -1.1 24 Noroeste 44 Noroeste 0 -- -- 90
2019-11-08 21:00:00 -0.9 18 Noroeste 69 Noroeste 0 -- -- 86
2019-11-08 20:00:00 -0.6 23 Noroeste 46 Noroeste 0 -- -- 95
2019-11-08 19:00:00 -0.7 19 Noroeste 42 Noroeste 0 -- -- 99
2019-11-08 18:00:00 -0.7 16 Noroeste 37 Noroeste 0.2 -- -- 99
2019-11-08 17:00:00 -0.9 22 Noroeste 48 Noroeste 0.2 -- -- 100
2019-11-08 16:00:00 -1.1 14 Noroeste 44 Noroeste 0.4 -- -- 100
2019-11-08 15:00:00 -1.4 25 Noroeste 51 Noroeste 0.4 -- -- 100
2019-11-08 14:00:00 -1.5 22 Noroeste 51 Noroeste 0.2 -- -- 98
2019-11-08 13:00:00 -1.5 24 Noroeste 58 Noroeste 0 -- -- 93
2019-11-08 12:00:00 -0.5 17 Noroeste 47 Noroeste 0 -- -- 82
2019-11-08 11:00:00 -0.9 20 Noroeste 55 Noroeste 0 -- -- 83
2019-11-08 10:00:00 -1.1 17 Noroeste 55 Noroeste 0 -- -- 83
2019-11-08 09:00:00 -1.2 18 Noroeste 40 Noroeste 0 -- -- 84
2019-11-08 08:00:00 -1.4 11 Noroeste 33 Noroeste 0 -- -- 84
2019-11-08 07:00:00 -1.5 15 Noroeste 39 Noroeste 0 -- -- 85
2019-11-08 06:00:00 -2.3 10 Noroeste 31 Oeste 0 -- -- 92
2019-11-08 05:00:00 -2.7 10 Noroeste 30 Noroeste 0 -- -- 91
2019-11-08 04:00:00 -3 15 Noroeste 39 Noroeste 0 -- -- 90
2019-11-08 03:00:00 -3.2 12 Oeste 44 Noroeste 0 -- -- 90
2019-11-08 02:00:00 -3.1 12 Oeste 40 Sudoeste 0 -- -- 86
2019-11-08 01:00:00 -3.1 16 Noroeste 48 Noroeste 0 -- -- 85
2019-11-08 00:00:00 -2.9 20 Noroeste 56 Norte 0 -- -- 87
2019-11-07 23:00:00 -2.6 14 Norte 50 Norte 0 -- -- 87
2019-11-07 22:00:00 -2.3 15 Norte 40 Nordeste 0 -- -- 83
2019-11-07 21:00:00 -1.8 11 Este 36 Norte 0 -- -- 85
2019-11-07 20:00:00 -1.2 16 Norte 45 Noroeste 0 -- -- 80
2019-11-07 19:00:00 -0.4 29 Norte 57 Norte 0 -- -- 79
2019-11-07 18:00:00 -0.2 20 Noroeste 62 Norte 0 -- -- 75
2019-11-07 17:00:00 0.3 21 Norte 58 Noroeste 0 -- -- 78
2019-11-07 16:00:00 1.2 20 Noroeste 59 Noroeste 0 -- -- 73
2019-11-07 15:00:00 1.4 18 Norte 45 Noroeste 0 -- -- 73
2019-11-07 14:00:00 1.6 13 Noroeste 36 Norte 0 -- -- 71
2019-11-07 13:00:00 1.8 13 Noroeste 28 Noroeste 0 -- -- 76
2019-11-07 12:00:00 1.4 13 Noroeste 35 Norte 0 -- -- 84
2019-11-07 11:00:00 0.8 13 Noroeste 27 Noroeste 0 -- -- 88
2019-11-07 10:00:00 0.8 15 Noroeste 34 Norte 0.2 -- -- 94
2019-11-07 09:00:00 1.1 17 Norte 36 Norte 0 -- -- 99
2019-11-07 08:00:00 2 12 Noroeste 42 Norte 0 -- -- 100
2019-11-07 07:00:00 3.5 25 Norte 59 Norte 0 -- -- 87
2019-11-07 06:00:00 3.3 14 Norte 29 Noroeste 0.6 -- -- 100
2019-11-07 05:00:00 4.5 15 Norte 43 Norte 0.6 -- -- 96
2019-11-07 04:00:00 4.7 27 Norte 46 Norte 0 -- -- 95
2019-11-07 03:00:00 4.6 21 Norte 55 Norte 0 -- -- 95
2019-11-07 02:00:00 4.1 23 Nordeste 56 Norte 0 -- -- 96
2019-11-07 01:00:00 4.5 14 Nordeste 42 Norte 0 -- -- 91
2019-11-07 00:00:00 4.6 10 Nordeste 41 Sur 0 -- -- 90
2019-11-06 23:00:00 4.2 11 Sudoeste 44 Sur 0 -- -- 90
2019-11-06 22:00:00 4 10 Sudeste 35 Sur 0 -- -- 89
2019-11-06 21:00:00 3.8 12 Oeste 34 Oeste 0 -- -- 90
2019-11-06 20:00:00 3.6 11 Oeste 40 Sur 0 -- -- 89
2019-11-06 19:00:00 2.9 17 Noroeste 46 Norte 0 -- -- 92
2019-11-06 18:00:00 3 10 Norte 33 Sur 0 -- -- 85
2019-11-06 17:00:00 3.2 16 Norte 34 Noroeste 0 -- -- 81
2019-11-06 16:00:00 3.6 7 Sudoeste 28 Norte 0 -- -- 80
2019-11-06 15:00:00 3.1 9 Oeste 30 Oeste 0 -- -- 83
2019-11-06 14:00:00 3.2 10 Sudoeste 32 Sur 0 -- -- 82
2019-11-06 13:00:00 3.4 8 Noroeste 19 Oeste 0 -- -- 86
2019-11-06 12:00:00 3.2 8 Noroeste 14 Noroeste 0 -- -- 87
2019-11-06 11:00:00 2.9 5 Noroeste 31 Oeste 0 -- -- 81
2019-11-06 10:00:00 1.8 8 Noroeste 22 Noroeste 0 -- -- 91
2019-11-06 09:00:00 0.7 12 Noroeste 29 Noroeste 0 -- -- 100
2019-11-06 08:00:00 0.5 11 Noroeste 20 Oeste 0 -- -- 100
2019-11-06 07:00:00 0.5 5 Noroeste 23 Oeste 0 -- -- 100
2019-11-06 06:00:00 0.7 15 Noroeste 31 Oeste 0 -- -- 100
2019-11-06 05:00:00 0.5 7 Noroeste 30 Norte 0.2 -- -- 100
2019-11-06 04:00:00 0.7 19 Noroeste 41 Noroeste 0 -- -- 100
2019-11-06 03:00:00 0.5 16 Noroeste 41 Noroeste 0 -- -- 100
2019-11-06 02:00:00 0.5 23 Noroeste 48 Oeste 0.4 -- -- 100
2019-11-06 01:00:00 0.8 17 Noroeste 43 Oeste 0.2 -- -- 100
2019-11-06 00:00:00 0.8 14 Noroeste 45 Noroeste 0 -- -- 100
2019-11-05 23:00:00 1 18 Noroeste 49 Noroeste 0 -- -- 100
2019-11-05 22:00:00 0.7 24 Noroeste 42 Norte 0.2 -- -- 100
2019-11-05 21:00:00 0.4 21 Noroeste 53 Noroeste 0.6 -- -- 100
2019-11-05 20:00:00 0.2 16 Noroeste 45 Noroeste 0.4 -- -- 100
2019-11-05 19:00:00 0.8 18 Noroeste 56 Noroeste 0.2 -- -- 99
2019-11-05 18:00:00 1.5 19 Noroeste 56 Noroeste 0 -- -- 96
2019-11-05 17:00:00 1.8 31 Noroeste 72 Noroeste 0 -- -- 89
2019-11-05 16:00:00 2.2 28 Noroeste 65 Norte 0 -- -- 88
2019-11-05 15:00:00 2.4 18 Noroeste 47 Noroeste 0.2 -- -- 89
2019-11-05 14:00:00 2 31 Noroeste 56 Norte 0 -- -- 89
2019-11-05 13:00:00 1.7 17 Noroeste 51 Noroeste 0 -- -- 92
2019-11-05 12:00:00 1.1 18 Norte 46 Noroeste 0 -- -- 97
2019-11-05 11:00:00 0.6 17 Norte 59 Norte 0 -- -- 98
2019-11-05 10:00:00 0.4 25 Norte 57 Norte 0 -- -- 95
2019-11-05 09:00:00 0 15 Nordeste 66 Norte 0 -- -- 96
2019-11-05 08:00:00 -0.2 17 Norte 64 Norte 0 -- -- 96
2019-11-05 07:00:00 -0.1 16 Nordeste 54 Nordeste 0 -- -- 94
2019-11-05 06:00:00 0.2 21 Nordeste 45 Sudeste 0 -- -- 92
2019-11-05 05:00:00 0.3 14 Norte 47 Norte 0 -- -- 93
2019-11-05 04:00:00 0.4 27 Norte 78 Noroeste 0 -- -- 91
2019-11-05 03:00:00 0.7 33 Norte 72 Noroeste 0 -- -- 87
2019-11-05 02:00:00 1.1 36 Norte 77 Norte 0 -- -- 81
2019-11-05 01:00:00 1.4 35 Norte 86 Norte 0 -- -- 84
2019-11-05 00:00:00 1.9 32 Norte 77 Norte 0 -- -- 86
2019-11-04 23:00:00 2.5 34 Norte 84 Noroeste 0 -- -- 83
2019-11-04 22:00:00 3 28 Norte 93 Noroeste 0 -- -- 83
2019-11-04 21:00:00 3.8 45 Norte 99 Norte 0 -- -- 80
2019-11-04 20:00:00 4.6 40 Norte 110 Norte 0 -- -- 82
2019-11-04 19:00:00 5.5 59 Norte 109 Noroeste 0 -- -- 83
2019-11-04 18:00:00 5.8 53 Norte 107 Norte 0.2 -- -- 90
2019-11-04 17:00:00 6.6 43 Norte 104 Noroeste 0.2 -- -- 83
2019-11-04 16:00:00 6.2 37 Norte 92 Norte 1.8 -- -- 94
2019-11-04 15:00:00 7.2 53 Norte 87 Noroeste 1.4 -- -- 95
2019-11-04 14:00:00 7 31 Norte 68 Nordeste 1 -- -- 95
2019-11-04 13:00:00 6.9 34 Norte 75 Norte 0.6 -- -- 94
2019-11-04 12:00:00 6.5 25 Norte 80 Norte 0.6 -- -- 93
2019-11-04 11:00:00 6.2 33 Norte 75 Norte 0.2 -- -- 94
2019-11-04 10:00:00 6.1 33 Norte 91 Norte 0 -- -- 94
2019-11-04 09:00:00 6.1 36 Norte 91 Noroeste 0.2 -- -- 94
2019-11-04 08:00:00 6.4 43 Norte 98 Norte 0 -- -- 94
2019-11-04 07:00:00 5.6 42 Norte 99 Norte 0.2 -- -- 99
2019-11-04 06:00:00 5.4 22 Norte 100 Norte 0 -- -- 99
2019-11-04 05:00:00 5.6 45 Norte 94 Norte 0.2 -- -- 97
2019-11-04 04:00:00 6.5 27 Nordeste 104 Norte 0 -- -- 92
2019-11-04 03:00:00 6.8 61 Norte 111 Norte 0.2 -- -- 95
2019-11-04 02:00:00 7 47 Norte 103 Norte 0.2 -- -- 97
2019-11-04 01:00:00 7 34 Norte 80 Norte 0 -- -- 95
2019-11-04 00:00:00 6.4 31 Norte 80 Norte 0 -- -- 95
2019-11-03 23:00:00 6.2 26 Nordeste 81 Norte 0 -- -- 93
2019-11-03 22:00:00 6.1 30 Norte 79 Norte 0 -- -- 91
2019-11-03 21:00:00 5.1 25 Nordeste 67 Norte 0 -- -- 93
2019-11-03 20:00:00 5 16 Norte 55 Norte 0 -- -- 89
2019-11-03 19:00:00 5.2 12 Sur 44 Noroeste 0 -- -- 81
2019-11-03 18:00:00 5.1 19 Sudeste 55 Norte 0 -- -- 78
2019-11-03 17:00:00 4.9 16 Nordeste 69 Norte 0 -- -- 77
2019-11-03 16:00:00 4.9 28 Norte 78 Nordeste 0 -- -- 76
2019-11-03 15:00:00 4.5 31 Norte 82 Norte 0 -- -- 75
2019-11-03 14:00:00 3.6 18 Norte 66 Noroeste 0 -- -- 76
2019-11-03 13:00:00 3.7 16 Norte 48 Noroeste 0 -- -- 78
2019-11-03 12:00:00 3.7 12 Noroeste 39 Noroeste 0 -- -- 75
2019-11-03 11:00:00 3.4 19 Noroeste 49 Noroeste 0 -- -- 72
2019-11-03 10:00:00 2.5 21 Noroeste 43 Noroeste 0 -- -- 75
2019-11-03 09:00:00 2.5 19 Noroeste 51 Noroeste 0 -- -- 79
2019-11-03 08:00:00 2.7 23 Noroeste 73 Norte 0 -- -- 91
2019-11-03 07:00:00 3.9 33 Noroeste 86 Norte 0 -- -- 88
2019-11-03 06:00:00 5.2 39 Noroeste 94 Noroeste 1 -- -- 94
2019-11-03 05:00:00 5.9 62 Norte 131 Norte 0.4 -- -- 98
2019-11-03 04:00:00 5.6 52 Norte 132 Norte 0.2 -- -- 95
2019-11-03 03:00:00 5.5 45 Norte 106 Norte 0.2 -- -- 91
2019-11-03 02:00:00 5.1 36 Norte 116 Norte 0.4 -- -- 94
2019-11-03 01:00:00 5.3 39 Norte 113 Noroeste 0 -- -- 94
2019-11-03 00:00:00 5.6 52 Norte 121 Norte 0 -- -- 90
2019-11-02 23:00:00 5.7 45 Norte 113 Norte 0 -- -- 87
2019-11-02 22:00:00 5.7 28 Nordeste 89 Norte 0 -- -- 89
2019-11-02 21:00:00 6.3 40 Norte 88 Norte 0 -- -- 77
2019-11-02 20:00:00 6.7 41 Norte 84 Norte 0 -- -- 82
2019-11-02 19:00:00 7.1 58 Norte 119 Norte 0 -- -- 84
2019-11-02 18:00:00 7.6 43 Norte 100 Norte 0 -- -- 86
2019-11-02 17:00:00 8.1 53 Norte 104 Norte 0 -- -- 82
2019-11-02 16:00:00 8.5 13 Nordeste 62 Norte 0 -- -- 83
2019-11-02 15:00:00 9.1 21 Sudeste 54 Sudeste 0 -- -- 79
2019-11-02 14:00:00 9.1 17 Sudeste 63 Sur 0 -- -- 80
2019-11-02 13:00:00 8.3 25 Nordeste 75 Norte 0.2 -- -- 93
2019-11-02 12:00:00 8.4 32 Norte 75 Noroeste 0 -- -- 95
2019-11-02 11:00:00 8.2 30 Norte 75 Norte 0.4 -- -- 94
2019-11-02 10:00:00 8.5 35 Norte 66 Norte 0.2 -- -- 95
2019-11-02 09:00:00 8.4 31 Norte 67 Norte 0.4 -- -- 94
2019-11-02 08:00:00 8 35 Norte 73 Norte 0.4 -- -- 96
2019-11-02 07:00:00 8.3 37 Norte 79 Norte 0 -- -- 95
2019-11-02 06:00:00 8.6 37 Norte 66 Noroeste 0.4 -- -- 96
2019-11-02 05:00:00 8.5 34 Norte 67 Norte 0.2 -- -- 95
2019-11-02 04:00:00 8.5 37 Norte 70 Norte 0.2 -- -- 96
2019-11-02 03:00:00 8.9 32 Norte 72 Norte 0 -- -- 93
2019-11-02 02:00:00 9.1 27 Norte 71 Nordeste 0 -- -- 90
2019-11-02 01:00:00 9.1 35 Norte 72 Noroeste 0 -- -- 90
2019-11-02 00:00:00 9.5 26 Norte 68 Norte 0 -- -- 88
2019-11-01 23:00:00 9.7 33 Norte 62 Norte 0 -- -- 87
2019-11-01 22:00:00 10 34 Norte 75 Norte 0 -- -- 87
2019-11-01 21:00:00 10.3 36 Norte 76 Nordeste 0 -- -- 87
2019-11-01 20:00:00 10.9 35 Norte 64 Noroeste 0.2 -- -- 83
2019-11-01 19:00:00 11 30 Norte 78 Norte 0.2 -- -- 85
2019-11-01 18:00:00 10.9 34 Norte 69 Norte 0.2 -- -- 91
2019-11-01 17:00:00 11.6 36 Norte 82 Noroeste 0 -- -- 85
2019-11-01 16:00:00 11.5 36 Norte 69 Norte 0.4 -- -- 93
2019-11-01 15:00:00 11.4 20 Norte 56 Noroeste 0.2 -- -- 95
2019-11-01 14:00:00 11.3 33 Norte 59 Norte 0 -- -- 94
2019-11-01 13:00:00 11.4 16 Nordeste 61 Norte 0 -- -- 92
2019-11-01 12:00:00 11.2 30 Norte 55 Norte 0 -- -- 92
2019-11-01 11:00:00 11 10 Nordeste 37 Norte 0 -- -- 89
2019-11-01 10:00:00 10.7 12 Norte 41 Noroeste 0 -- -- 93
2019-11-01 09:00:00 10.7 9 Noroeste 41 Norte 0 -- -- 94
2019-11-01 08:00:00 10.8 19 Norte 41 Norte 0 -- -- 90
2019-11-01 07:00:00 10.5 12 Noroeste 35 Noroeste 0 -- -- 91
2019-11-01 06:00:00 10.9 15 Noroeste 36 Noroeste 0 -- -- 89
2019-11-01 05:00:00 11 15 Noroeste 42 Norte 0 -- -- 90
2019-11-01 04:00:00 10.9 17 Norte 33 Noroeste 0 -- -- 94
2019-11-01 03:00:00 10.8 15 Noroeste 45 Norte 0 -- -- 92
2019-11-01 02:00:00 10.8 15 Norte 45 Noroeste 0 -- -- 93
2019-11-01 01:00:00 10.5 21 Norte 40 Norte 0 -- -- 93
2019-11-01 00:00:00 10.5 8 Sudoeste 26 Noroeste 0 -- -- 91
2019-10-31 23:00:00 10.3 9 Sudoeste 24 Sur 0 -- -- 90
2019-10-31 22:00:00 10.3 12 Sudoeste 33 Sur 0 -- -- 89
2019-10-31 21:00:00 10.1 5 Oeste 21 Oeste 0 -- -- 88
2019-10-31 20:00:00 10.4 12 Oeste 24 Noroeste 0 -- -- 83
2019-10-31 19:00:00 10.1 8 Noroeste 17 Noroeste 0 -- -- 84
2019-10-31 18:00:00 9.9 8 Noroeste 22 Noroeste 0 -- -- 84
2019-10-31 17:00:00 10 8 Noroeste 23 Noroeste 0 -- -- 81
2019-10-31 16:00:00 10.6 11 Noroeste 27 Norte 0 -- -- 79
2019-10-31 15:00:00 10.7 14 Noroeste 29 Norte 0 -- -- 76
2019-10-31 14:00:00 10 8 Noroeste 21 Norte 0 -- -- 84
2019-10-31 13:00:00 10.3 11 Noroeste 19 Norte 0 -- -- 76
2019-10-31 12:00:00 8.9 10 Noroeste 18 Noroeste 0 -- -- 87
2019-10-31 11:00:00 8.6 5 Noroeste 12 Noroeste 0 -- -- 89
2019-10-31 10:00:00 7.5 6 Noroeste 18 Noroeste 0 -- -- 99
2019-10-31 09:00:00 7.8 6 Noroeste 17 Noroeste 0 -- -- 94
2019-10-31 08:00:00 8 7 Noroeste 15 Noroeste 0 -- -- 96
2019-10-31 07:00:00 7.6 0 Calma 15 Noroeste 0 -- -- 100
2019-10-31 06:00:00 8.2 8 Noroeste 18 Noroeste 0 -- -- 100
2019-10-31 05:00:00 8.4 8 Noroeste 19 Noroeste 0 -- -- 98
2019-10-31 04:00:00 8.7 9 Noroeste 18 Oeste 0 -- -- 100
2019-10-31 03:00:00 9.3 4 Oeste 27 Noroeste 0 -- -- 94
2019-10-31 02:00:00 9.4 9 Noroeste 30 Norte 0.2 -- -- 97
2019-10-31 01:00:00 10.1 12 Noroeste 36 Noroeste 0 -- -- 92
2019-10-31 00:00:00 9.9 13 Norte 41 Norte 0 -- -- 93
2019-10-30 23:00:00 10.1 14 Norte 41 Sur 0 -- -- 91
2019-10-30 22:00:00 10.3 8 Oeste 33 Sudoeste 0 -- -- 88
2019-10-30 21:00:00 9.8 12 Sudoeste 31 Sudoeste 0 -- -- 89
2019-10-30 20:00:00 9.8 7 Sudoeste 27 Oeste 0 -- -- 91
2019-10-30 19:00:00 9.5 7 Nordeste 32 Norte 0 -- -- 91
2019-10-30 18:00:00 9.7 12 Norte 42 Nordeste 0 -- -- 88
2019-10-30 17:00:00 9.9 10 Nordeste 27 Norte 0 -- -- 86
2019-10-30 16:00:00 10.8 14 Sur 34 Sur 0 -- -- 78
2019-10-30 15:00:00 10.6 9 Noroeste 29 Oeste 0 -- -- 79
2019-10-30 14:00:00 10.2 10 Sur 34 Noroeste 0 -- -- 82
2019-10-30 13:00:00 10.6 11 Norte 36 Noroeste 0 -- -- 81
2019-10-30 12:00:00 10.9 11 Sudeste 46 Sudeste 0 -- -- 78
2019-10-30 11:00:00 10.1 9 Norte 33 Sur 0 -- -- 84
2019-10-30 10:00:00 10.2 10 Oeste 30 Norte 0 -- -- 83
2019-10-30 09:00:00 9.2 12 Noroeste 36 Norte 0 -- -- 89
2019-10-30 08:00:00 9.6 14 Sudoeste 28 Sudoeste 0 -- -- 85
2019-10-30 07:00:00 9.1 15 Sudoeste 30 Sudoeste 0 -- -- 87
2019-10-30 06:00:00 8.9 13 Sudoeste 24 Oeste 0 -- -- 82
2019-10-30 05:00:00 8.5 17 Sudoeste 24 Sudoeste 0 -- -- 85
2019-10-30 04:00:00 9 5 Sudoeste 19 Oeste 0 -- -- 76
2019-10-30 03:00:00 9.6 9 Oeste 23 Sudoeste 0 -- -- 71
2019-10-30 02:00:00 8.9 8 Sudoeste 23 Sudoeste 0 -- -- 70
2019-10-30 01:00:00 8.2 4 Oeste 16 Sudoeste 0 -- -- 73
2019-10-30 00:00:00 7.8 8 Sudoeste 17 Sudoeste 0 -- -- 75
2019-10-29 23:00:00 8.1 6 Oeste 18 Oeste 0 -- -- 79
2019-10-29 22:00:00 8.2 8 Sur 19 Sur 0 -- -- 82
2019-10-29 21:00:00 8.7 14 Norte 24 Sudeste 0 -- -- 82
2019-10-29 20:00:00 8.7 7 Oeste 28 Sur 0 -- -- 83
2019-10-29 19:00:00 9.5 9 Sur 28 Sur 0 -- -- 79
2019-10-29 18:00:00 9.7 7 Oeste 19 Noroeste 0 -- -- 80
2019-10-29 17:00:00 10.7 8 Este 22 Sur 0 -- -- 76
2019-10-29 16:00:00 11.9 10 Noroeste 17 Noroeste 0 -- -- 80
2019-10-29 15:00:00 12.5 3 Noroeste 12 Noroeste 0 -- -- 81
2019-10-29 14:00:00 10.7 6 Noroeste 15 Noroeste 0 -- -- 90
2019-10-29 13:00:00 11.5 11 Noroeste 19 Oeste 0 -- -- 85
2019-10-29 12:00:00 12.1 10 Noroeste 16 Noroeste 0 -- -- 81
2019-10-29 11:00:00 11.9 6 Norte 25 Oeste 0 -- -- 76
2019-10-29 10:00:00 10.7 16 Sudoeste 31 Sudoeste 0 -- -- 78
2019-10-29 09:00:00 10.3 13 Sudoeste 28 Oeste 0 -- -- 81
2019-10-29 08:00:00 9.9 10 Sudoeste 31 Sur 0 -- -- 81
2019-10-29 07:00:00 9.8 13 Sudoeste 28 Sur 0 -- -- 82
2019-10-29 06:00:00 10.3 8 Noroeste 25 Oeste 0 -- -- 80
2019-10-29 05:00:00 10.6 6 Sur 28 Norte 0 -- -- 75
2019-10-29 04:00:00 11.3 9 Nordeste 23 Sudeste 0 -- -- 69
2019-10-29 03:00:00 11.5 7 Sudoeste 27 Sur 0 -- -- 62
2019-10-29 02:00:00 11.4 5 Sur 26 Sur 0 -- -- 61
2019-10-29 01:00:00 11.6 10 Noroeste 26 Sur 0 -- -- 61
2019-10-29 00:00:00 12 18 Sur 28 Sur 0 -- -- 58
2019-10-28 23:00:00 11.5 4 Sudoeste 21 Sudoeste 0 -- -- 58
2019-10-28 22:00:00 11.8 5 Sudeste 28 Sur 0 -- -- 57
2019-10-28 21:00:00 12.3 4 Oeste 24 Sur 0 -- -- 55
2019-10-28 20:00:00 11.9 4 Oeste 14 Este 0 -- -- 59
2019-10-28 19:00:00 11.1 4 Sudeste 16 Noroeste 0 -- -- 65
2019-10-28 18:00:00 11.6 4 Sur 8 Sur 0 -- -- 68
2019-10-28 17:00:00 13.2 0 Calma 7 Noroeste 0 -- -- 61
2019-10-28 16:00:00 14 3 Oeste 13 Noroeste 0 -- -- 59
2019-10-28 15:00:00 15 4 Oeste 13 Noroeste 0 -- -- 51
2019-10-28 14:00:00 16.7 3 Noroeste 23 Sur 0 -- -- 42
2019-10-28 13:00:00 15.5 9 Nordeste 18 Sudeste 0 -- -- 41
2019-10-28 12:00:00 15.4 6 Oeste 19 Sudoeste 0 -- -- 50
2019-10-28 11:00:00 13.7 12 Sudoeste 23 Sudoeste 0 -- -- 53
2019-10-28 10:00:00 12.3 12 Sudoeste 24 Sudoeste 0 -- -- 55
2019-10-28 09:00:00 13 2 Noroeste 19 Sudoeste 0 -- -- 52
2019-10-28 08:00:00 12.1 10 Sudoeste 19 Sur 0 -- -- 54
2019-10-28 07:00:00 11.5 3 Sudeste 21 Oeste 0 -- -- 55
2019-10-28 06:00:00 12.6 9 Sudoeste 21 Oeste 0 -- -- 51
2019-10-28 05:00:00 12.3 6 Este 21 Sur 0 -- -- 51
2019-10-28 04:00:00 12.2 4 Sudoeste 18 Sur 0 -- -- 58
2019-10-28 03:00:00 12.4 9 Sudoeste 23 Nordeste 0 -- -- 55
2019-10-28 02:00:00 12.4 5 Norte 17 Norte 0 -- -- 46
2019-10-28 01:00:00 12.8 7 Norte 30 Sur 0 -- -- 39
2019-10-28 00:00:00 11.7 3 Norte 25 Sur 0 -- -- 51
2019-10-27 23:00:00 11.1 7 Este 20 Sudoeste 0 -- -- 48
2019-10-27 22:00:00 11.3 7 Este 16 Sudoeste 0 -- -- 50
2019-10-27 21:00:00 13.9 10 Sudoeste 28 Sudoeste 0 -- -- 43
2019-10-27 20:00:00 11.3 4 Sur 20 Sur 0 -- -- 67
2019-10-27 19:00:00 14.6 13 Sudoeste 24 Sur 0 -- -- 24
2019-10-27 18:00:00 12.2 3 Oeste 31 Sudeste 0 -- -- 71
2019-10-27 17:00:00 14.2 19 Sudeste 32 Sudeste 0 -- -- 53
2019-10-27 16:00:00 14.6 3 Oeste 9 Norte 0 -- -- 55
2019-10-27 15:00:00 13.5 5 Norte 28 Sur 0 -- -- 64
2019-10-27 14:00:00 14.5 3 Norte 17 Norte 0 -- -- 54
2019-10-27 13:00:00 14 7 Noroeste 11 Noroeste 0 -- -- 55
2019-10-27 12:00:00 14.8 3 Norte 9 Noroeste 0 -- -- 51
2019-10-27 11:00:00 12.8 5 Sudeste 17 Este 0 -- -- 55
2019-10-27 10:00:00 13.4 3 Norte 15 Sur 0 -- -- 50
2019-10-27 09:00:00 10.5 6 Este 13 Este 0 -- -- 55
2019-10-27 08:00:00 9.6 6 Este 15 Este 0 -- -- 55
2019-10-27 07:00:00 9.8 7 Nordeste 12 Este 0 -- -- 51
2019-10-27 06:00:00 11.1 6 Este 18 Sudoeste 0 -- -- 45
2019-10-27 05:00:00 11.6 10 Sudoeste 21 Sudoeste 0 -- -- 49
2019-10-27 04:00:00 12.2 12 Sudoeste 25 Sudoeste 0 -- -- 47
2019-10-27 03:00:00 12.4 14 Sudoeste 26 Sudoeste 0 -- -- 46
2019-10-27 02:00:00 13.2 12 Sudoeste 26 Sudoeste 0 -- -- 40
2019-10-27 01:00:00 13 6 Oeste 26 Sudoeste 0 -- -- 36
2019-10-27 00:00:00 13.1 8 Sudoeste 21 Sudoeste 0 -- -- 35
2019-10-26 23:00:00 13.3 12 Sudoeste 25 Sudoeste 0 -- -- 35
2019-10-26 22:00:00 13.5 9 Sudoeste 22 Oeste 0 -- -- 29
2019-10-26 21:00:00 13.2 5 Oeste 24 Sur 0 -- -- 27
2019-10-26 20:00:00 13.3 9 Sur 20 Sudoeste 0 -- -- 33
2019-10-26 19:00:00 12.8 4 Noroeste 15 Oeste 0 -- -- 51
2019-10-26 18:00:00 14.3 5 Este 17 Sudoeste 0 -- -- 48
2019-10-26 17:00:00 16.8 3 Sudoeste 11 Sudoeste 0 -- -- 41
2019-10-26 16:00:00 16 3 Oeste 17 Noroeste 0 -- -- 49
2019-10-26 15:00:00 16.1 6 Noroeste 14 Noroeste 0 -- -- 41
2019-10-26 14:00:00 15.6 4 Norte 21 Norte 0 -- -- 37
2019-10-26 13:00:00 15.3 8 Noroeste 23 Noroeste 0 -- -- 32
2019-10-26 12:00:00 14.1 7 Nordeste 16 Norte 0 -- -- 29
2019-10-26 11:00:00 10.4 4 Nordeste 27 Nordeste 0 -- -- 43
2019-10-26 10:00:00 10.6 5 Nordeste 25 Sur 0 -- -- 45
2019-10-26 09:00:00 10.9 8 Sudeste 20 Oeste 0 -- -- 44
2019-10-26 08:00:00 12.8 9 Oeste 24 Oeste 0 -- -- 29
2019-10-26 07:00:00 11.4 10 Sudoeste 25 Sudoeste 0 -- -- 33
2019-10-26 06:00:00 10.9 13 Sudoeste 28 Oeste 0 -- -- 49
2019-10-26 05:00:00 11.2 9 Oeste 30 Sur 0 -- -- 44
2019-10-26 04:00:00 11.1 10 Sudoeste 29 Sudeste 0 -- -- 47
2019-10-26 03:00:00 11.3 8 Oeste 33 Sur 0 -- -- 45
2019-10-26 02:00:00 11.7 15 Sudeste 34 Sudeste 0 -- -- 47
2019-10-26 01:00:00 11.4 9 Sudoeste 21 Oeste 0 -- -- 47
2019-10-26 00:00:00 11.7 10 Sudoeste 35 Sudoeste 0 -- -- 39
2019-10-25 23:00:00 12 5 Norte 25 Norte 0 -- -- 36
2019-10-25 22:00:00 11.8 8 Sudoeste 20 Oeste 0 -- -- 40
2019-10-25 21:00:00 11.7 6 Noroeste 28 Oeste 0 -- -- 44
2019-10-25 20:00:00 11.8 6 Sur 24 Sur 0 -- -- 47
2019-10-25 19:00:00 11.7 5 Sudoeste 18 Oeste 0 -- -- 51
2019-10-25 18:00:00 12.7 6 Oeste 26 Sur 0 -- -- 54
2019-10-25 17:00:00 14.5 8 Noroeste 25 Noroeste 0 -- -- 53
2019-10-25 16:00:00 14.4 8 Noroeste 30 Norte 0 -- -- 51
2019-10-25 15:00:00 14.5 7 Noroeste 34 Sur 0 -- -- 46
2019-10-25 14:00:00 14.4 9 Sudeste 27 Noroeste 0 -- -- 51
2019-10-25 13:00:00 13.6 7 Norte 25 Sudoeste 0 -- -- 58
2019-10-25 12:00:00 12.3 11 Nordeste 37 Sur 0 -- -- 61
2019-10-25 11:00:00 10.8 5 Sudeste 17 Noroeste 0 -- -- 65
2019-10-25 10:00:00 10.2 8 Sudoeste 16 Sudoeste 0 -- -- 67
2019-10-25 09:00:00 9.5 11 Sudoeste 22 Sudoeste 0 -- -- 73
2019-10-25 08:00:00 9.7 13 Sudoeste 23 Sudoeste 0 -- -- 68
2019-10-25 07:00:00 9.4 15 Sudoeste 24 Sudoeste 0 -- -- 69
2019-10-25 06:00:00 8.8 12 Sudoeste 19 Sudoeste 0 -- -- 78
2019-10-25 05:00:00 7.8 9 Sudoeste 13 Sur 0 -- -- 79
2019-10-25 04:00:00 7 8 Sur 13 Sudeste 0 -- -- 83
2019-10-25 03:00:00 7.4 7 Sudeste 13 Sur 0 -- -- 83
2019-10-25 02:00:00 6.8 8 Sudeste 13 Sudeste 0 -- -- 86
2019-10-25 01:00:00 7.3 4 Sudoeste 9 Oeste 0 -- -- 87
2019-10-25 00:00:00 7.5 4 Oeste 13 Oeste 0 -- -- 86
2019-10-24 23:00:00 8 6 Noroeste 24 Oeste 0 -- -- 83
2019-10-24 22:00:00 8 13 Noroeste 28 Noroeste 0 -- -- 82
2019-10-24 21:00:00 7.3 10 Oeste 24 Oeste 0 -- -- 84
2019-10-24 20:00:00 6.4 9 Oeste 29 Sudoeste 0 -- -- 91
2019-10-24 19:00:00 6.2 13 Sudoeste 22 Sudoeste 0 -- -- 92
2019-10-24 18:00:00 6.7 6 Oeste 18 Sudoeste 0 -- -- 90
2019-10-24 17:00:00 7.7 5 Noroeste 14 Oeste 0 -- -- 87
2019-10-24 16:00:00 7.7 4 Norte 13 Norte 0 -- -- 86
2019-10-24 15:00:00 8 6 Noroeste 18 Noroeste 0 -- -- 85
2019-10-24 14:00:00 8.1 9 Noroeste 28 Noroeste 0 -- -- 81
2019-10-24 13:00:00 7 5 Noroeste 17 Noroeste 0 -- -- 83
2019-10-24 12:00:00 6.5 11 Noroeste 21 Oeste 0 -- -- 75
2019-10-24 11:00:00 4.8 5 Noroeste 22 Oeste 0 -- -- 63
2019-10-24 10:00:00 4.6 11 Noroeste 24 Noroeste 0 -- -- 56
2019-10-24 09:00:00 2.8 12 Noroeste 31 Noroeste 0 -- -- 100
2019-10-24 08:00:00 1 8 Noroeste 29 Noroeste 0.2 -- -- 100
2019-10-24 07:00:00 1.4 8 Noroeste 18 Noroeste 0.2 -- -- 100
2019-10-24 06:00:00 1.1 9 Noroeste 21 Oeste 1 -- -- 100
2019-10-24 05:00:00 1.2 9 Noroeste 15 Noroeste 1 -- -- 100
2019-10-24 04:00:00 1.7 4 Noroeste 9 Norte 1 -- -- 100
2019-10-24 03:00:00 1.7 2 Oeste 19 Noroeste 1.8 -- -- 100
2019-10-24 02:00:00 2.4 12 Noroeste 22 Norte 2 -- -- 100
2019-10-24 01:00:00 3.4 7 Noroeste 13 Noroeste 1.4 -- -- 100
2019-10-24 00:00:00 3.7 4 Noroeste 7 Noroeste 0.8 -- -- 100
2019-10-23 23:00:00 3.6 3 Noroeste 11 Noroeste 0.6 -- -- 100
2019-10-23 22:00:00 3.9 9 Norte 15 Noroeste 1.2 -- -- 100
2019-10-23 21:00:00 4.1 5 Noroeste 19 Noroeste 1.6 -- -- 100
2019-10-23 20:00:00 4.3 0 Calma 15 Sudoeste 0.6 -- -- 99
2019-10-23 19:00:00 4.4 3 Oeste 12 Sudoeste 3.6 -- -- 97
2019-10-23 18:00:00 4.6 9 Norte 16 Noroeste 3 -- -- 100
2019-10-23 17:00:00 5.7 8 Noroeste 15 Noroeste 0.2 -- -- 100
2019-10-23 16:00:00 6.1 5 Sur 18 Sudeste 0.2 -- -- 83
2019-10-23 15:00:00 6.8 5 Noroeste 36 Sur 0 -- -- 88
2019-10-23 14:00:00 6.2 29 Sur 37 Sur 0 -- -- 82
2019-10-23 13:00:00 5.4 4 Noroeste 26 Sur 0 -- -- 96
2019-10-23 12:00:00 4.7 5 Sudeste 38 Sudeste 1.4 -- -- 90
2019-10-23 11:00:00 4.2 21 Sur 31 Sur 4.8 -- -- 90
2019-10-23 10:00:00 4.1 5 Sudeste 16 Sur 1.4 -- -- 100
2019-10-23 09:00:00 3.8 2 Sudeste 15 Sur 1 -- -- 100
2019-10-23 08:00:00 3.8 2 Nordeste 9 Oeste 2.2 -- -- 100
2019-10-23 07:00:00 3.7 2 Este 6 Este 1.4 -- -- 100
2019-10-23 06:00:00 3.8 2 Sur 19 Sur 1.4 -- -- 100
2019-10-23 05:00:00 3.9 7 Sur 14 Sur 1.6 -- -- 100
2019-10-23 04:00:00 3.8 7 Noroeste 19 Noroeste 1.4 -- -- 100
2019-10-23 03:00:00 3.5 4 Oeste 19 Sudoeste 1.2 -- -- 100
2019-10-23 02:00:00 3.3 4 Oeste 25 Oeste 1 -- -- 100
2019-10-23 01:00:00 3.3 11 Noroeste 29 Oeste 1 -- -- 100
2019-10-23 00:00:00 2.7 7 Sudoeste 21 Sudoeste 1 -- -- 100
2019-10-22 23:00:00 1.8 5 Sudoeste 16 Sudeste 1.2 -- -- 100
2019-10-22 22:00:00 1.5 7 Noroeste 23 Noroeste 2 -- -- 100
2019-10-22 21:00:00 0.9 7 Norte 27 Nordeste 2 -- -- 100
2019-10-22 20:00:00 0.6 8 Noroeste 30 Noroeste 1.8 -- -- 100
2019-10-22 19:00:00 0.7 15 Norte 34 Norte 2.6 -- -- 100
2019-10-22 18:00:00 0.8 6 Noroeste 31 Norte 3.2 -- -- 100
2019-10-22 17:00:00 1.5 11 Norte 25 Noroeste 1.8 -- -- 100
2019-10-22 16:00:00 1.8 6 Noroeste 42 Noroeste 1.4 -- -- 100
2019-10-22 15:00:00 1.8 17 Noroeste 33 Noroeste 1 -- -- 100
2019-10-22 14:00:00 1.7 16 Noroeste 28 Noroeste 0.2 -- -- 100
2019-10-22 13:00:00 2.4 6 Oeste 17 Sur 0 -- -- 99
2019-10-22 12:00:00 1.3 9 Oeste 19 Oeste 0 -- -- 100
2019-10-22 11:00:00 1.5 7 Noroeste 19 Sur 0 -- -- 98
2019-10-22 10:00:00 2.4 8 Sur 23 Sur 0 -- -- 87
2019-10-22 09:00:00 2.2 13 Sur 28 Sur 0 -- -- 87
2019-10-22 08:00:00 1.8 16 Sur 31 Sur 0 -- -- 95
2019-10-22 07:00:00 1.8 14 Sudeste 25 Sudeste 0 -- -- 93
2019-10-22 06:00:00 1.6 12 Sudeste 22 Este 0 -- -- 89
2019-10-22 05:00:00 2.4 15 Sudeste 30 Sudeste 0 -- -- 84
2019-10-22 04:00:00 2.1 24 Sudeste 28 Sudeste 0 -- -- 81
2019-10-22 03:00:00 1.7 17 Sudeste 24 Sudeste 0 -- -- 83
2019-10-22 02:00:00 2.3 17 Sudeste 25 Sudeste 0 -- -- 77
2019-10-22 01:00:00 2.1 20 Sudeste 26 Sudeste 0 -- -- 82
2019-10-22 00:00:00 2.2 20 Sudeste 32 Sudeste 0 -- -- 85
2019-10-21 23:00:00 2.6 22 Sudeste 31 Sur 0.2 -- -- 88
2019-10-21 22:00:00 2.2 22 Sudeste 32 Sudeste 0.8 -- -- 91
2019-10-21 21:00:00 1.7 17 Sudeste 26 Sur 3 -- -- 93
2019-10-21 20:00:00 2.4 21 Sudeste 27 Sur 0.4 -- -- 90
2019-10-21 19:00:00 2.5 10 Sudeste 21 Este 0.4 -- -- 91
2019-10-21 18:00:00 2.1 12 Sudeste 23 Sudeste 0.8 -- -- 92
2019-10-21 17:00:00 2.7 15 Sudeste 23 Sudeste 0.4 -- -- 92
2019-10-21 16:00:00 2.8 6 Este 18 Este 0 -- -- 93
2019-10-21 15:00:00 4 5 Norte 9 Noroeste 0 -- -- 89
2019-10-21 14:00:00 3.6 5 Este 13 Este 0 -- -- 86
2019-10-21 13:00:00 4.8 2 Este 9 Sur 0 -- -- 77
2019-10-21 12:00:00 2 4 Sudeste 10 Sudeste 0 -- -- 84
2019-10-21 11:00:00 0.4 9 Sudeste 13 Sudeste 0 -- -- 87
2019-10-21 10:00:00 -0.4 9 Sudeste 13 Sudeste 0 -- -- 87
2019-10-21 09:00:00 -0.4 9 Sudeste 14 Este 0 -- -- 88
2019-10-21 08:00:00 0.2 9 Sudeste 12 Sur 0 -- -- 88
2019-10-21 07:00:00 -0.1 10 Sudeste 12 Sudeste 0 -- -- 92
2019-10-21 06:00:00 -0.4 8 Sur 12 Sur 0 -- -- 92
2019-10-21 05:00:00 0.3 4 Sur 7 Oeste 0 -- -- 100
2019-10-21 04:00:00 0.6 2 Sudoeste 6 Oeste 0 -- -- 100
2019-10-21 03:00:00 0.5 2 Oeste 8 Oeste 0 -- -- 100
2019-10-21 02:00:00 0.6 4 Norte 17 Noroeste 0 -- -- 100
2019-10-21 01:00:00 0.5 5 Noroeste 17 Noroeste 0 -- -- 100
2019-10-21 00:00:00 0.5 5 Noroeste 12 Noroeste 0 -- -- 100
2019-10-20 23:00:00 0.5 5 Sur 10 Sudoeste 0.2 -- -- 100
2019-10-20 22:00:00 -0.1 0 Calma 8 Noroeste 1.2 -- -- 100
2019-10-20 21:00:00 -0.3 5 Noroeste 30 Noroeste 1.8 -- -- 100
2019-10-20 20:00:00 0.5 8 Noroeste 16 Noroeste 1.6 -- -- 100
2019-10-20 19:00:00 0.3 3 Oeste 9 Noroeste 2.2 -- -- 100
2019-10-20 18:00:00 0.3 5 Oeste 18 Noroeste 3.2 -- -- 100
2019-10-20 17:00:00 1.6 3 Noroeste 5 Noroeste 1.6 -- -- 100
2019-10-20 16:00:00 1.4 0 Calma 17 Noroeste 2.6 -- -- 100
2019-10-20 15:00:00 2.5 7 Noroeste 17 Noroeste 0.8 -- -- 100
2019-10-20 14:00:00 3.8 6 Noroeste 17 Noroeste 0.2 -- -- 97
2019-10-20 13:00:00 3.4 4 Nordeste 24 Noroeste 0.6 -- -- 92
2019-10-20 12:00:00 4.1 6 Norte 31 Sur 0 -- -- 87
2019-10-20 11:00:00 3.4 13 Sudeste 31 Sudeste 0 -- -- 91
2019-10-20 10:00:00 3.6 15 Sudeste 53 Sur 0.2 -- -- 89
2019-10-20 09:00:00 3.3 21 Sudeste 67 Sur 0 -- -- 90
2019-10-20 08:00:00 3.6 20 Sur 46 Sur 0 -- -- 85
2019-10-20 07:00:00 3.6 10 Nordeste 47 Sur 0 -- -- 86
2019-10-20 06:00:00 3.3 19 Sudeste 61 Sudeste 0 -- -- 92
2019-10-20 05:00:00 4.8 15 Sudeste 53 Sur 0.6 -- -- 85
2019-10-20 04:00:00 5.6 11 Este 35 Sudeste 0.6 -- -- 89
2019-10-20 03:00:00 6.2 8 Norte 33 Sur 3.2 -- -- 98
2019-10-20 02:00:00 7.9 22 Sur 53 Sudeste 0.4 -- -- 84
2019-10-20 01:00:00 7.5 24 Sudeste 62 Sudeste 0.4 -- -- 83
2019-10-20 00:00:00 8 32 Sudeste 87 Sur 0.4 -- -- 81
2019-10-19 23:00:00 8.4 40 Sudeste 77 Sudeste 1.2 -- -- 77
2019-10-19 22:00:00 7.9 32 Sudeste 79 Sudeste 1.4 -- -- 83
2019-10-19 21:00:00 8 24 Sudeste 62 Sudeste 1.8 -- -- 88
2019-10-19 20:00:00 7.5 18 Sur 55 Este 2.2 -- -- 89
2019-10-19 19:00:00 8.5 18 Sudeste 48 Este 0 -- -- 73
2019-10-19 18:00:00 9.2 22 Sudeste 54 Sur 0 -- -- 72
2019-10-19 17:00:00 8.9 18 Sudeste 47 Sudeste 0 -- -- 72
2019-10-19 16:00:00 9.1 18 Sudeste 36 Sudoeste 0 -- -- 70
2019-10-19 15:00:00 8.1 10 Sur 44 Sudeste 0 -- -- 77
2019-10-19 14:00:00 7 26 Sudeste 45 Sudeste 0 -- -- 85
2019-10-19 13:00:00 6.2 29 Sudeste 45 Sur 0 -- -- 87
2019-10-19 12:00:00 6.3 20 Sur 40 Sur 0 -- -- 85
2019-10-19 11:00:00 6.4 20 Sur 35 Sur 0 -- -- 77
2019-10-19 10:00:00 6.4 18 Sur 43 Sur 0 -- -- 81
2019-10-19 09:00:00 6.3 19 Sur 40 Sur 0 -- -- 79
2019-10-19 08:00:00 6.3 25 Sur 59 Sur 0 -- -- 80
2019-10-19 07:00:00 6.7 23 Sur 57 Sur 0 -- -- 77
2019-10-19 06:00:00 6.4 9 Sudeste 45 Norte 0 -- -- 82
2019-10-19 05:00:00 7 13 Sur 41 Sur 0 -- -- 80
2019-10-19 04:00:00 6.9 8 Noroeste 33 Sudeste 0 -- -- 80
2019-10-19 03:00:00 6.9 9 Oeste 29 Nordeste 0 -- -- 85
2019-10-19 02:00:00 7 14 Norte 39 Sudeste 0 -- -- 89
2019-10-19 01:00:00 7.4 17 Nordeste 46 Sudeste 0 -- -- 91
2019-10-19 00:00:00 8.6 16 Sudeste 45 Sudeste 0 -- -- 83
2019-10-18 23:00:00 8.8 12 Este 45 Sur 0 -- -- 83
2019-10-18 22:00:00 9.4 20 Sudeste 50 Sudeste 0 -- -- 82
2019-10-18 21:00:00 9.9 22 Sudeste 77 Sur 0 -- -- 78
2019-10-18 20:00:00 10.2 28 Sudeste 69 Sur 0 -- -- 73
2019-10-18 19:00:00 9.9 38 Sudeste 71 Sudeste 0 -- -- 56
2019-10-18 18:00:00 9.6 35 Sudeste 63 Sur 0 -- -- 61
2019-10-18 17:00:00 10 29 Sudeste 66 Sudeste 0 -- -- 64
2019-10-18 16:00:00 9.5 14 Sudeste 43 Sur 0 -- -- 73
2019-10-18 15:00:00 9.5 12 Este 35 Sudeste 0 -- -- 70
2019-10-18 14:00:00 8.8 11 Este 33 Sudeste 0 -- -- 76
2019-10-18 13:00:00 9.6 9 Nordeste 37 Sur 0 -- -- 69
2019-10-18 12:00:00 9 17 Norte 36 Norte 0 -- -- 68
2019-10-18 11:00:00 9.7 10 Noroeste 29 Norte 0 -- -- 48
2019-10-18 10:00:00 9 7 Oeste 35 Norte 0 -- -- 53
2019-10-18 09:00:00 8.9 6 Noroeste 41 Norte 0 -- -- 67
2019-10-18 08:00:00 9 16 Nordeste 62 Norte 0 -- -- 80
2019-10-18 07:00:00 9.3 31 Norte 62 Norte 0 -- -- 89
2019-10-18 06:00:00 8.8 23 Norte 44 Norte 0 -- -- 94
2019-10-18 05:00:00 9.2 26 Norte 61 Norte 1 -- -- 94
2019-10-18 04:00:00 9.7 27 Norte 44 Norte 0 -- -- 95
2019-10-18 03:00:00 9.7 13 Nordeste 36 Nordeste 2.8 -- -- 94
2019-10-18 02:00:00 9.9 16 Nordeste 53 Sur 1.4 -- -- 93
2019-10-18 01:00:00 10.2 12 Sudeste 60 Sur 0.2 -- -- 87
2019-10-18 00:00:00 11.1 27 Sudeste 63 Sudeste 0 -- -- 80
2019-10-17 23:00:00 10.7 15 Norte 58 Sudeste 0 -- -- 84
2019-10-17 22:00:00 10.9 15 Sudeste 51 Sur 0 -- -- 80
2019-10-17 21:00:00 10.8 13 Sudeste 46 Sudeste 0 -- -- 76
2019-10-17 20:00:00 10.6 10 Sudeste 37 Oeste 0 -- -- 72
2019-10-17 19:00:00 10.5 9 Nordeste 51 Sur 0 -- -- 75
2019-10-17 18:00:00 10.9 13 Este 43 Sur 0 -- -- 72
2019-10-17 17:00:00 10.3 17 Norte 43 Norte 0 -- -- 78
2019-10-17 16:00:00 9.7 13 Norte 48 Sur 0 -- -- 87
2019-10-17 15:00:00 9.6 13 Este 43 Norte 0 -- -- 84
2019-10-17 14:00:00 9.7 8 Nordeste 32 Norte 0 -- -- 86
2019-10-17 13:00:00 9 8 Nordeste 39 Nordeste 0 -- -- 89
2019-10-17 12:00:00 8.7 12 Este 58 Norte 0 -- -- 89
2019-10-17 11:00:00 8.5 13 Este 56 Norte 0 -- -- 88
2019-10-17 10:00:00 8.7 25 Norte 54 Norte 0 -- -- 88
2019-10-17 09:00:00 8.3 18 Sudeste 60 Norte 0 -- -- 89
2019-10-17 08:00:00 8.5 20 Nordeste 39 Sur 0.2 -- -- 87
2019-10-17 07:00:00 8.7 14 Nordeste 36 Nordeste 0 -- -- 85
2019-10-17 06:00:00 9.1 12 Nordeste 60 Sur 0 -- -- 84
2019-10-17 05:00:00 9 22 Sur 67 Sur 0 -- -- 61
2019-10-17 04:00:00 11.2 18 Este 49 Este 0 -- -- 69
2019-10-17 03:00:00 10.8 17 Este 60 Sudeste 0 -- -- 66
2019-10-17 02:00:00 10.1 25 Sur 55 Sudeste 0 -- -- 68
2019-10-17 01:00:00 9.1 19 Sur 51 Sur 0 -- -- 72
2019-10-17 00:00:00 9.6 15 Nordeste 52 Sudeste 0 -- -- 65
2019-10-16 23:00:00 9.9 25 Sur 54 Sur 0 -- -- 66
2019-10-16 22:00:00 9.5 23 Sudeste 50 Sur 0 -- -- 68
2019-10-16 21:00:00 10 22 Sudeste 37 Sudeste 0 -- -- 67
2019-10-16 20:00:00 10.3 13 Noroeste 33 Sur 0 -- -- 72
2019-10-16 19:00:00 10 8 Oeste 31 Sur 0 -- -- 68
2019-10-16 18:00:00 10.4 15 Sur 27 Sur 0 -- -- 63
2019-10-16 17:00:00 11.5 8 Norte 31 Sudeste 0 -- -- 53
2019-10-16 16:00:00 10.2 11 Sudeste 31 Noroeste 0 -- -- 60
2019-10-16 15:00:00 10.3 11 Noroeste 46 Sur 0 -- -- 55
2019-10-16 14:00:00 10.3 21 Norte 42 Norte 0 -- -- 45
2019-10-16 13:00:00 8 12 Sudeste 47 Noroeste 0 -- -- 49
2019-10-16 12:00:00 8.6 13 Este 49 Este 0 -- -- 42
2019-10-16 11:00:00 7.9 15 Norte 47 Sudoeste 0 -- -- 46
2019-10-16 10:00:00 7.4 16 Sur 65 Sur 0 -- -- 56
2019-10-16 09:00:00 5.9 14 Sudoeste 53 Oeste 0 -- -- 74
2019-10-16 08:00:00 6.6 20 Sudoeste 52 Sur 0 -- -- 71
2019-10-16 07:00:00 5.8 19 Sudoeste 50 Sur 0 -- -- 76
2019-10-16 06:00:00 5.1 21 Sur 55 Sudeste 0 -- -- 86
2019-10-16 05:00:00 4.7 18 Nordeste 51 Sur 0 -- -- 89
2019-10-16 04:00:00 5 14 Sudeste 49 Noroeste 0 -- -- 85
2019-10-16 03:00:00 4.9 13 Sudeste 53 Noroeste 0 -- -- 84
2019-10-16 02:00:00 5 12 Noroeste 39 Noroeste 0 -- -- 83
2019-10-16 01:00:00 5.4 14 Noroeste 58 Oeste 0 -- -- 78
2019-10-16 00:00:00 5.1 14 Oeste 46 Norte 0 -- -- 79
2019-10-15 23:00:00 5.1 15 Norte 44 Norte 0 -- -- 81
2019-10-15 22:00:00 4.8 18 Noroeste 51 Este 0 -- -- 82
2019-10-15 21:00:00 4.7 13 Nordeste 44 Sur 0 -- -- 77
2019-10-15 20:00:00 4.6 19 Sur 49 Sur 0 -- -- 72
2019-10-15 19:00:00 4.8 12 Norte 28 Norte 0 -- -- 74
2019-10-15 18:00:00 5.2 17 Sudeste 37 Sur 0 -- -- 70
2019-10-15 17:00:00 5.4 10 Oeste 33 Sudoeste 0 -- -- 72
2019-10-15 16:00:00 6.7 12 Sudoeste 32 Oeste 0 -- -- 65
2019-10-15 15:00:00 5.5 12 Oeste 39 Sur 0 -- -- 65
2019-10-15 14:00:00 3.8 13 Oeste 36 Oeste 0 -- -- 79
2019-10-15 13:00:00 4.5 14 Sudoeste 29 Sudoeste 0 -- -- 75
2019-10-15 12:00:00 3.6 13 Sudoeste 25 Sudoeste 0 -- -- 74
2019-10-15 11:00:00 2.7 9 Sudoeste 25 Sudoeste 0 -- -- 73
2019-10-15 10:00:00 1.9 11 Oeste 31 Sudoeste 0 -- -- 77
2019-10-15 09:00:00 0.9 14 Oeste 35 Oeste 0 -- -- 89
2019-10-15 08:00:00 0.5 13 Oeste 37 Sudoeste 0 -- -- 88
2019-10-15 07:00:00 0.8 13 Oeste 34 Sudoeste 0 -- -- 84
2019-10-15 06:00:00 0.7 21 Sudoeste 39 Sudoeste 0 -- -- 87
2019-10-15 05:00:00 0.9 14 Noroeste 28 Norte 0 -- -- 88
2019-10-15 04:00:00 1 10 Noroeste 50 Norte 0 -- -- 90
2019-10-15 03:00:00 1 26 Norte 63 Norte 0 -- -- 93
2019-10-15 02:00:00 1.2 15 Nordeste 54 Norte 0 -- -- 91
2019-10-15 01:00:00 1.9 16 Norte 54 Norte 0 -- -- 89
2019-10-15 00:00:00 2.5 35 Norte 62 Norte 0.2 -- -- 91